createdAt,value
2022-11-21T00:01:40.782Z,31.27
2022-11-21T00:04:43.280Z,43.50
2022-11-21T00:07:46.159Z,37.72
2022-11-21T00:10:48.899Z,37.60
2022-11-21T00:13:51.352Z,42.47
2022-11-21T00:16:57.372Z,37.47
2022-11-21T00:20:00.110Z,39.73
2022-11-21T00:23:02.952Z,45.05
2022-11-21T00:26:06.758Z,43.75
2022-11-21T00:29:09.576Z,43.78
2022-11-21T00:32:12.027Z,43.58
2022-11-21T00:35:14.457Z,44.93
2022-11-21T00:38:16.953Z,45.08
2022-11-21T00:41:19.465Z,41.90
2022-11-21T00:44:21.900Z,39.20
2022-11-21T00:47:24.387Z,42.88
2022-11-21T00:50:26.784Z,46.77
2022-11-21T00:53:29.881Z,44.33
2022-11-21T00:56:32.316Z,51.75
2022-11-21T00:59:34.792Z,63.30
2022-11-21T01:02:37.213Z,56.67
2022-11-21T01:05:39.741Z,58.27
2022-11-21T01:08:43.679Z,55.97
2022-11-21T01:11:46.122Z,54.67
2022-11-21T01:14:48.797Z,58.53
2022-11-21T01:17:51.196Z,58.88
2022-11-21T01:20:53.592Z,62.27
2022-11-21T01:23:56.356Z,58.80
2022-11-21T01:26:58.897Z,68.00
2022-11-21T01:30:01.371Z,52.50
2022-11-21T01:33:03.772Z,53.65
2022-11-21T01:36:14.004Z,54.43
2022-11-21T01:39:16.540Z,43.80
2022-11-21T01:42:18.961Z,53.15
2022-11-21T01:45:49.286Z,56.60
2022-11-21T01:48:56.091Z,50.10
2022-11-21T01:51:58.457Z,52.27
2022-11-21T01:55:08.155Z,53.83
2022-11-21T01:58:11.078Z,53.35
2022-11-21T02:01:13.766Z,48.83
2022-11-21T02:04:16.986Z,50.60
2022-11-21T02:07:21.455Z,45.53
2022-11-21T02:10:24.178Z,48.55
2022-11-21T02:13:26.850Z,54.53
2022-11-21T02:16:29.577Z,51.60
2022-11-21T02:19:55.832Z,49.00
2022-11-21T02:23:19.458Z,50.10
2022-11-21T02:26:21.937Z,53.08
2022-11-21T02:29:24.484Z,51.22
2022-11-21T02:32:34.217Z,48.03
2022-11-21T02:35:36.805Z,50.60
2022-11-21T02:38:39.455Z,51.40
2022-11-21T02:41:48.962Z,45.95
2022-11-21T02:45:14.170Z,45.25
2022-11-21T02:48:16.653Z,51.97
2022-11-21T02:51:19.079Z,45.03
2022-11-21T02:54:21.554Z,48.97
2022-11-21T02:57:23.968Z,47.45
2022-11-21T03:00:26.445Z,49.28
2022-11-21T03:03:28.902Z,44.03
2022-11-21T03:06:31.310Z,46.95
2022-11-21T03:09:33.776Z,46.30
2022-11-21T03:12:40.095Z,40.15
2022-11-21T03:15:42.570Z,43.03
2022-11-21T03:18:45.139Z,37.33
2022-11-21T03:21:47.551Z,41.63
2022-11-21T03:24:49.906Z,48.00
2022-11-21T03:27:56.006Z,40.90
2022-11-21T03:30:58.482Z,42.22
2022-11-21T03:34:00.995Z,39.63
2022-11-21T03:37:03.874Z,38.85
2022-11-21T03:40:07.141Z,41.40
2022-11-21T03:43:09.695Z,43.65
2022-11-21T03:46:12.070Z,37.78
2022-11-21T03:49:16.673Z,42.47
2022-11-21T03:52:19.140Z,41.47
2022-11-21T03:55:21.913Z,40.90
2022-11-21T03:58:24.311Z,33.15
2022-11-21T04:01:26.754Z,43.58
2022-11-21T04:04:29.580Z,44.08
2022-11-21T04:07:32.336Z,49.67
2022-11-21T04:10:34.842Z,46.87
2022-11-21T04:13:37.801Z,51.38
2022-11-21T04:16:40.265Z,53.28
2022-11-21T04:19:42.703Z,86.78
2022-11-21T04:22:45.257Z,66.22
2022-11-21T04:25:47.701Z,63.80
2022-11-21T04:28:50.193Z,63.50
2022-11-21T04:31:52.588Z,53.03
2022-11-21T04:34:54.989Z,60.97
2022-11-21T04:37:57.402Z,57.35
2022-11-21T04:40:59.917Z,54.07
2022-11-21T04:44:02.313Z,52.80
2022-11-21T04:47:05.723Z,58.78
2022-11-21T04:50:09.837Z,48.10
2022-11-21T04:53:12.335Z,43.45
2022-11-21T04:56:16.642Z,45.87
2022-11-21T04:59:19.452Z,45.17
2022-11-21T05:02:22.405Z,47.88
2022-11-21T05:05:24.818Z,40.55
2022-11-21T05:08:27.313Z,64.28
2022-11-21T05:11:48.330Z,67.97
2022-11-21T05:14:50.741Z,81.40
2022-11-21T05:17:53.222Z,84.82
2022-11-21T05:20:55.731Z,93.90
2022-11-21T05:23:58.259Z,63.63
2022-11-21T05:27:00.659Z,61.37
2022-11-21T05:30:03.265Z,62.30
2022-11-21T05:33:05.789Z,55.25
2022-11-21T05:36:08.229Z,62.15
2022-11-21T05:39:10.649Z,67.97
2022-11-21T05:42:13.018Z,83.93
2022-11-21T05:45:15.517Z,83.38
2022-11-21T05:48:18.403Z,69.43
2022-11-21T05:51:21.879Z,94.05
2022-11-21T05:54:24.236Z,77.82
2022-11-21T05:57:26.653Z,59.70
2022-11-21T06:00:29.372Z,79.18
2022-11-21T06:03:34.481Z,85.55
2022-11-21T06:06:37.375Z,86.25
2022-11-21T06:09:39.842Z,75.93
2022-11-21T06:12:42.233Z,94.93
2022-11-21T06:15:44.654Z,81.03
2022-11-21T06:18:50.026Z,67.03
2022-11-21T06:21:54.096Z,72.57
2022-11-21T06:24:56.575Z,67.35
2022-11-21T06:28:01.888Z,72.53
2022-11-21T06:31:08.589Z,70.65
2022-11-21T06:34:10.942Z,76.65
2022-11-21T06:37:13.381Z,63.42
2022-11-21T06:40:15.919Z,65.03
2022-11-21T06:43:18.367Z,70.63
2022-11-21T06:46:20.857Z,71.22
2022-11-21T06:49:23.350Z,90.85
2022-11-21T06:52:25.848Z,78.32
2022-11-21T06:55:29.854Z,95.32
2022-11-21T06:58:32.434Z,71.70
2022-11-21T07:01:35.003Z,76.68
2022-11-21T07:04:37.575Z,61.40
2022-11-21T07:07:41.077Z,54.55
2022-11-21T07:11:10.184Z,59.10
2022-11-21T07:14:10.795Z,60.10
2022-11-21T07:17:15.915Z,56.13
2022-11-21T07:20:18.623Z,44.63
2022-11-21T07:23:21.049Z,53.20
2022-11-21T07:26:24.459Z,165.52
2022-11-21T07:29:27.368Z,115.00
2022-11-21T07:32:30.094Z,78.10
2022-11-21T07:35:33.306Z,72.93
2022-11-21T07:38:35.895Z,64.78
2022-11-21T07:41:38.668Z,59.42
2022-11-21T07:44:41.161Z,62.30
2022-11-21T07:47:43.650Z,59.83
2022-11-21T07:50:46.231Z,58.63
2022-11-21T07:53:48.698Z,63.40
2022-11-21T07:56:51.204Z,54.58
2022-11-21T07:59:54.257Z,55.73
2022-11-21T08:02:57.103Z,57.70
2022-11-21T08:06:04.078Z,66.65
2022-11-21T08:09:07.822Z,50.53
2022-11-21T08:12:11.553Z,70.70
2022-11-21T08:15:14.112Z,59.50
2022-11-21T08:18:20.957Z,48.60
2022-11-21T08:21:23.331Z,64.50
2022-11-21T08:24:26.077Z,56.13
2022-11-21T08:27:31.508Z,51.55
2022-11-21T08:30:34.361Z,48.30
2022-11-21T08:33:37.061Z,56.35
2022-11-21T08:36:39.626Z,43.15
2022-11-21T08:39:42.324Z,38.72
2022-11-21T08:42:45.057Z,29.50
2022-11-21T08:45:47.526Z,39.97
2022-11-21T08:48:50.552Z,31.73
2022-11-21T08:51:53.438Z,42.10
2022-11-21T08:54:56.161Z,25.13
2022-11-21T08:57:59.602Z,36.63
2022-11-21T09:01:02.360Z,32.10
2022-11-21T09:04:05.853Z,34.45
2022-11-21T09:07:08.437Z,35.38
2022-11-21T09:10:11.939Z,31.88
2022-11-21T09:13:15.093Z,29.52
2022-11-21T09:16:35.844Z,29.00
2022-11-21T09:19:38.569Z,28.52
2022-11-21T09:22:41.894Z,30.60
2022-11-21T09:25:45.010Z,30.55
2022-11-21T09:28:47.603Z,27.95
2022-11-21T09:31:50.225Z,27.40
2022-11-21T09:34:52.651Z,28.40
2022-11-21T09:37:55.142Z,24.42
2022-11-21T09:41:32.576Z,21.50
2022-11-21T09:45:04.119Z,18.88
2022-11-21T09:48:13.004Z,31.57
2022-11-21T09:51:17.563Z,25.27
2022-11-21T09:54:27.053Z,23.60
2022-11-21T09:57:34.786Z,19.60
2022-11-21T10:00:37.605Z,23.02
2022-11-21T10:03:43.814Z,17.37
2022-11-21T10:06:52.656Z,19.77
2022-11-21T10:10:18.395Z,16.75
2022-11-21T10:13:43.410Z,16.08
2022-11-21T10:17:12.229Z,18.55
2022-11-21T10:20:14.875Z,17.40
2022-11-21T10:23:38.475Z,13.35
2022-11-21T10:27:03.082Z,18.98
2022-11-21T10:30:07.502Z,23.33
2022-11-21T10:33:16.198Z,29.98
2022-11-21T10:36:34.731Z,36.23
2022-11-21T10:39:49.333Z,31.33
2022-11-21T10:43:20.992Z,26.38
2022-11-21T10:46:23.792Z,20.30
2022-11-21T10:49:29.822Z,27.55
2022-11-21T10:52:36.459Z,26.80
2022-11-21T10:55:56.676Z,28.83
2022-11-21T10:58:59.810Z,28.23
2022-11-21T11:02:24.309Z,22.42
2022-11-21T11:05:28.759Z,26.17
2022-11-21T11:08:50.551Z,27.37
2022-11-21T11:11:53.104Z,31.83
2022-11-21T11:14:56.577Z,29.25
2022-11-21T11:18:09.023Z,23.60
2022-11-21T11:21:19.418Z,23.33
2022-11-21T11:24:29.458Z,19.47
2022-11-21T11:27:32.192Z,22.15
2022-11-21T11:30:38.234Z,22.95
2022-11-21T11:33:50.473Z,18.40
2022-11-21T11:37:15.271Z,22.77
2022-11-21T11:40:37.534Z,34.17
2022-11-21T11:44:22.575Z,22.67
2022-11-21T11:47:30.905Z,30.90
2022-11-21T11:50:57.995Z,23.17
2022-11-21T11:54:09.345Z,31.52
2022-11-21T11:57:17.730Z,27.80
2022-11-21T12:00:31.171Z,23.60
2022-11-21T12:03:58.095Z,19.50
2022-11-21T12:11:25.383Z,25.60
2022-11-21T12:14:52.463Z,22.83
2022-11-21T12:18:13.913Z,19.50
2022-11-21T12:21:20.709Z,19.25
2022-11-21T12:24:23.309Z,20.08
2022-11-21T12:27:31.845Z,18.17
2022-11-21T12:30:50.255Z,23.30
2022-11-21T12:34:04.494Z,26.73
2022-11-21T12:37:38.752Z,23.58
2022-11-21T12:40:44.462Z,26.70
2022-11-21T12:43:57.396Z,25.05
2022-11-21T12:47:58.365Z,31.57
2022-11-21T12:51:25.506Z,41.80
2022-11-21T12:55:17.328Z,40.33
2022-11-21T12:58:31.245Z,32.97
2022-11-21T13:01:46.588Z,31.92
2022-11-21T13:04:50.160Z,31.63
2022-11-21T13:08:01.451Z,27.35
2022-11-21T13:11:31.169Z,21.55
2022-11-21T13:14:40.148Z,27.75
2022-11-21T13:17:47.456Z,16.58
2022-11-21T13:20:51.508Z,31.13
2022-11-21T13:23:53.973Z,32.33
2022-11-21T13:26:56.956Z,20.40
2022-11-21T13:30:11.455Z,32.75
2022-11-21T13:33:35.641Z,23.67
2022-11-21T13:36:39.256Z,25.23
2022-11-21T13:39:41.722Z,18.55
2022-11-21T13:43:32.031Z,19.92
2022-11-21T13:47:00.900Z,28.65
2022-11-21T13:50:20.600Z,29.52
2022-11-21T13:53:38.359Z,29.17
2022-11-21T13:56:59.080Z,41.05
2022-11-21T14:00:19.904Z,33.53
2022-11-21T14:03:45.378Z,36.17
2022-11-21T14:06:48.415Z,31.05
2022-11-21T14:09:56.190Z,31.67
2022-11-21T14:12:58.902Z,27.02
2022-11-21T14:16:23.953Z,31.05
2022-11-21T14:19:27.584Z,44.58
2022-11-21T14:23:07.498Z,41.45
2022-11-21T14:26:20.183Z,39.77
2022-11-21T14:29:32.584Z,71.47
2022-11-21T14:32:35.090Z,54.90
2022-11-21T14:35:39.950Z,49.35
2022-11-21T14:38:47.551Z,66.55
2022-11-21T14:41:55.863Z,76.70
2022-11-21T14:45:16.578Z,72.35
2022-11-21T14:48:29.356Z,60.05
2022-11-21T14:51:31.937Z,70.72
2022-11-21T14:54:59.941Z,77.53
2022-11-21T14:58:06.180Z,65.77
2022-11-21T15:01:25.902Z,69.97
2022-11-21T15:04:31.993Z,105.90
2022-11-21T15:07:45.548Z,141.07
2022-11-21T15:10:48.151Z,219.00
2022-11-21T15:17:20.597Z,176.27
2022-11-21T15:20:23.523Z,104.13
2022-11-21T15:23:38.467Z,79.70
2022-11-21T15:26:41.227Z,65.25
2022-11-21T15:29:43.653Z,97.90
2022-11-21T15:33:01.820Z,109.95
2022-11-21T15:36:13.988Z,85.43
2022-11-21T15:39:21.986Z,93.28
2022-11-21T15:42:42.517Z,53.47
2022-11-21T15:45:46.984Z,70.57
2022-11-21T15:48:53.834Z,72.90
2022-11-21T15:52:11.530Z,83.97
2022-11-21T15:55:20.080Z,76.93
2022-11-21T15:58:22.774Z,80.50
2022-11-21T16:01:27.580Z,73.80
2022-11-21T16:04:30.176Z,72.35
2022-11-21T16:07:32.690Z,70.35
2022-11-21T16:10:36.247Z,72.93
2022-11-21T16:13:38.706Z,85.18
2022-11-21T16:16:43.517Z,124.47
2022-11-21T16:19:46.142Z,93.20
2022-11-21T16:22:50.006Z,100.25
2022-11-21T16:25:55.484Z,90.65
2022-11-21T16:28:58.983Z,77.22
2022-11-21T16:32:01.524Z,74.23
2022-11-21T16:35:04.733Z,68.40
2022-11-21T16:38:11.349Z,62.38
2022-11-21T16:41:14.068Z,79.10
2022-11-21T16:44:16.712Z,81.53
2022-11-21T16:47:19.122Z,80.10
2022-11-21T16:50:22.111Z,95.63
2022-11-21T16:53:24.759Z,120.57
2022-11-21T16:56:27.644Z,106.60
2022-11-21T16:59:31.535Z,128.88
2022-11-21T17:02:34.391Z,124.60
2022-11-21T17:05:36.874Z,98.85
2022-11-21T17:08:39.591Z,126.85
2022-11-21T17:11:42.955Z,278.20
2022-11-21T17:14:47.519Z,124.88
2022-11-21T17:17:50.107Z,149.73
2022-11-21T17:20:53.033Z,188.90
2022-11-21T17:23:55.927Z,147.40
2022-11-21T17:27:01.101Z,165.30
2022-11-21T17:30:04.248Z,151.38
2022-11-21T17:33:06.942Z,116.37
2022-11-21T17:36:14.037Z,151.75
2022-11-21T17:39:18.137Z,149.48
2022-11-21T17:42:21.061Z,767.65
2022-11-21T17:45:23.870Z,191.57
2022-11-21T17:48:26.741Z,187.23
2022-11-21T17:51:35.025Z,224.80
2022-11-21T17:54:37.578Z,187.43
2022-11-21T17:57:40.171Z,189.02
2022-11-21T18:00:42.603Z,137.48
2022-11-21T18:03:47.064Z,145.23
2022-11-21T18:06:49.897Z,139.82
2022-11-21T18:09:53.068Z,115.53
2022-11-21T18:12:55.824Z,181.82
2022-11-21T18:16:04.229Z,297.60
2022-11-21T18:19:08.533Z,244.57
2022-11-21T18:22:11.242Z,217.68
2022-11-21T18:25:13.888Z,184.23
2022-11-21T18:28:16.350Z,179.23
2022-11-21T18:31:20.869Z,164.40
2022-11-21T18:34:23.368Z,132.60
2022-11-21T18:37:26.078Z,146.80
2022-11-21T18:40:28.748Z,138.75
2022-11-21T18:43:31.595Z,122.63
2022-11-21T18:46:36.432Z,95.78
2022-11-21T18:49:39.156Z,140.37
2022-11-21T18:52:46.443Z,189.00
2022-11-21T18:55:49.595Z,183.00
2022-11-21T18:58:58.177Z,140.93
2022-11-21T19:02:01.690Z,236.15
2022-11-21T19:05:04.708Z,279.93
2022-11-21T19:08:07.388Z,275.70
2022-11-21T19:11:11.972Z,320.83
2022-11-21T19:14:14.757Z,322.33
2022-11-21T19:17:18.311Z,364.00
2022-11-21T19:20:21.119Z,328.33
2022-11-21T19:23:23.782Z,291.33
2022-11-21T19:26:26.421Z,195.18
2022-11-21T19:29:30.317Z,220.40
2022-11-21T19:32:34.219Z,175.18
2022-11-21T19:35:37.739Z,157.07
2022-11-21T19:38:40.513Z,121.25
2022-11-21T19:41:43.631Z,145.07
2022-11-21T19:44:46.272Z,241.43
2022-11-21T19:47:50.153Z,234.00
2022-11-21T19:50:59.263Z,194.50
2022-11-21T19:54:04.111Z,186.18
2022-11-21T19:57:12.433Z,165.45
2022-11-21T20:00:17.260Z,143.10
2022-11-21T20:03:20.571Z,137.25
2022-11-21T20:06:32.312Z,151.40
2022-11-21T20:09:35.031Z,212.90
2022-11-21T20:12:37.851Z,145.27
2022-11-21T20:15:40.453Z,140.02
2022-11-21T20:18:43.020Z,138.40
2022-11-21T20:21:46.276Z,135.43
2022-11-21T20:24:51.698Z,129.63
2022-11-21T20:27:54.696Z,150.15
2022-11-21T20:31:08.370Z,100.82
2022-11-21T20:34:13.162Z,111.78
2022-11-21T20:37:15.923Z,98.33
2022-11-21T20:40:18.530Z,87.60
2022-11-21T20:43:21.259Z,89.55
2022-11-21T20:46:24.298Z,87.88
2022-11-21T20:49:26.973Z,100.93
2022-11-21T20:55:53.106Z,91.95
2022-11-21T20:58:56.868Z,94.70
2022-11-21T21:01:59.443Z,116.47
2022-11-21T21:05:02.803Z,105.45
2022-11-21T21:08:05.396Z,108.53
2022-11-21T21:11:36.702Z,131.80
2022-11-21T21:14:38.763Z,136.85
2022-11-21T21:17:41.205Z,180.43
2022-11-21T21:21:09.446Z,165.25
2022-11-21T21:24:07.807Z,167.53
2022-11-21T21:27:10.540Z,178.30
2022-11-21T21:30:13.920Z,163.57
2022-11-21T21:33:16.647Z,190.20
2022-11-21T21:36:21.338Z,161.80
2022-11-21T21:39:24.464Z,119.80
2022-11-21T21:42:27.071Z,125.18
2022-11-21T21:45:29.481Z,154.95
2022-11-21T21:48:32.026Z,175.65
2022-11-21T21:51:36.762Z,156.25
2022-11-21T21:54:39.508Z,135.47
2022-11-21T21:57:48.290Z,135.52
2022-11-21T22:00:54.561Z,144.57
2022-11-21T22:03:59.100Z,166.52
2022-11-21T22:07:02.780Z,155.88
2022-11-21T22:10:06.261Z,134.50
2022-11-21T22:13:08.926Z,133.80
2022-11-21T22:16:12.677Z,123.43
2022-11-21T22:19:15.734Z,124.70
2022-11-21T22:22:18.286Z,132.40
2022-11-21T22:25:20.793Z,116.10
2022-11-21T22:28:24.044Z,120.30
2022-11-21T22:31:26.402Z,108.15
2022-11-21T22:34:29.311Z,126.28
2022-11-21T22:37:31.894Z,86.57
2022-11-21T22:40:34.471Z,91.00
2022-11-21T22:43:36.914Z,89.82
2022-11-21T22:46:39.298Z,90.55
2022-11-21T22:49:41.926Z,100.38
2022-11-21T22:52:44.475Z,92.20
2022-11-21T22:56:02.102Z,89.13
2022-11-21T22:59:04.741Z,92.50
2022-11-21T23:02:07.205Z,85.22
2022-11-21T23:05:09.770Z,103.80
2022-11-21T23:08:12.159Z,83.80
2022-11-21T23:11:19.361Z,92.30
2022-11-21T23:14:21.760Z,106.97
2022-11-21T23:17:24.165Z,110.70
2022-11-21T23:20:26.643Z,95.90
2022-11-21T23:23:29.245Z,92.75
2022-11-21T23:26:31.695Z,99.80
2022-11-21T23:29:34.113Z,88.97
2022-11-21T23:32:36.523Z,86.68
2022-11-21T23:35:38.908Z,81.00
2022-11-21T23:38:41.735Z,82.47
2022-11-21T23:41:44.125Z,84.53
2022-11-21T23:44:47.681Z,78.88
2022-11-21T23:47:50.081Z,73.72
2022-11-21T23:50:52.548Z,90.30
2022-11-21T23:53:55.088Z,101.03
2022-11-21T23:56:57.501Z,86.93
2022-11-21T23:59:59.956Z,90.22
